Iwanui, Waitara Historical Data
Daily Summary for February 15, 2018 Units:  Both    English   Metric
« Previous Day
Next Day »
Daily Weekly Monthly Yearly Custom
  High: Low: Average:
Temperature: 80.1 °F /  26.7 °C 55.6 °F /  13.1 °C 68.4 °F /  20.2 °C
Dew Point: 65.1 °F /  18.4 °C 54.1 °F /  12.3 °C 59 °F /  15 °C
Humidity: 98% 51% 75%
Wind Speed: 8.3mph /  13.4km/h - 2.5mph /  4.1km/h
Wind Gust: 15.9mph /  25.6km/h - -
Wind- - West
Pressure: 30 in /  1016.5 hPa 29.9 in /  1013.4 hPa -
Precipitation: 0 in /  0.0 mm    
Historical Graphs
 
 
Tabular Data for February 15, 2018
Time Temperature Dew Point Pressure Wind Wind Speed Wind Gust Humidity Rainfall Rate (Hourly)
00:03 59.5 °F /  15.3 °C 56.8 °F /  13.8 °C 29.9in /  1014.1hPa WSW 1.6mph /  2.6km/h 2.2mph /  3.5km/h 91% 0in /  0.0mm
00:08 59.5 °F /  15.3 °C 56.8 °F /  13.8 °C 29.9in /  1014.1hPa Calm   2.2mph /  3.5km/h 91% 0in /  0.0mm
00:13 59.5 °F /  15.3 °C 57.2 °F /  14.0 °C 29.9in /  1013.8hPa Calm   2.2mph /  3.5km/h 92% 0in /  0.0mm
00:18 59.5 °F /  15.3 °C 57.2 °F /  14.0 °C 29.9in /  1013.8hPa Calm   1.6mph /  2.6km/h 92% 0in /  0.0mm
00:23 59.5 °F /  15.3 °C 57.2 °F /  14.0 °C 29.9in /  1013.8hPa Calm   1.6mph /  2.6km/h 92% 0in /  0.0mm
00:28 59.5 °F /  15.3 °C 57.2 °F /  14.0 °C 29.9in /  1013.8hPa Calm   0.7mph /  1.1km/h 92% 0in /  0.0mm
00:33 59.5 °F /  15.3 °C 57.2 °F /  14.0 °C 29.9in /  1013.8hPa Calm   0.7mph /  1.1km/h 92% 0in /  0.0mm
00:38 59.5 °F /  15.3 °C 57.2 °F /  14.0 °C 29.9in /  1013.4hPa Calm   0.7mph /  1.1km/h 92% 0in /  0.0mm
00:43 59.4 °F /  15.2 °C 57 °F /  13.9 °C 29.9in /  1013.8hPa Calm   0.7mph /  1.1km/h 92% 0in /  0.0mm
00:49 59.2 °F /  15.1 °C 56.8 °F /  13.8 °C 29.9in /  1013.8hPa Calm   0.7mph /  1.1km/h 92% 0in /  0.0mm
00:54 59 °F /  15.0 °C 56.7 °F /  13.7 °C 29.9in /  1013.8hPa Calm     92% 0in /  0.0mm
00:59 59 °F /  15.0 °C 56.7 °F /  13.7 °C 29.9in /  1013.8hPa SW 0.7mph /  1.1km/h 2.2mph /  3.5km/h 92% 0in /  0.0mm
01:04 58.8 °F /  14.9 °C 56.8 °F /  13.8 °C 29.9in /  1013.8hPa Calm   2.2mph /  3.5km/h 93% 0in /  0.0mm
01:09 58.8 °F /  14.9 °C 56.8 °F /  13.8 °C 29.9in /  1013.8hPa Calm   2.2mph /  3.5km/h 93% 0in /  0.0mm
01:14 58.6 °F /  14.8 °C 56.7 °F /  13.7 °C 29.9in /  1013.8hPa Calm   0.7mph /  1.1km/h 93% 0in /  0.0mm
01:19 58.5 °F /  14.7 °C 56.5 °F /  13.6 °C 29.9in /  1013.8hPa Calm   0.7mph /  1.1km/h 93% 0in /  0.0mm
01:24 58.5 °F /  14.7 °C 56.5 °F /  13.6 °C 29.9in /  1013.8hPa Calm   0.7mph /  1.1km/h 93% 0in /  0.0mm
01:29 58.3 °F /  14.6 °C 56.7 °F /  13.7 °C 29.9in /  1013.8hPa Calm     94% 0in /  0.0mm
01:34 58.1 °F /  14.5 °C 56.5 °F /  13.6 °C 29.9in /  1013.8hPa Calm     94% 0in /  0.0mm
01:39 57.9 °F /  14.4 °C 56.1 °F /  13.4 °C 29.9in /  1013.8hPa Calm     94% 0in /  0.0mm
01:44 57.7 °F /  14.3 °C 55.9 °F /  13.3 °C 29.9in /  1013.8hPa Calm     94% 0in /  0.0mm
01:49 57.7 °F /  14.3 °C 55.9 °F /  13.3 °C 29.9in /  1013.8hPa Calm     94% 0in /  0.0mm
01:54 57.4 °F /  14.1 °C 55.8 °F /  13.2 °C 29.9in /  1013.8hPa Calm     94% 0in /  0.0mm
01:59 57.2 °F /  14.0 °C 55.6 °F /  13.1 °C 29.9in /  1013.8hPa Calm     94% 0in /  0.0mm
02:04 57 °F /  13.9 °C 55.6 °F /  13.1 °C 29.9in /  1013.8hPa Calm     95% 0in /  0.0mm
02:09 57 °F /  13.9 °C 55.6 °F /  13.1 °C 29.9in /  1013.8hPa Calm     95% 0in /  0.0mm
02:14 56.8 °F /  13.8 °C 55.4 °F /  13.0 °C 29.9in /  1013.8hPa Calm     95% 0in /  0.0mm
02:19 56.5 °F /  13.6 °C 55 °F /  12.8 °C 29.9in /  1013.8hPa Calm     95% 0in /  0.0mm
02:24 56.5 °F /  13.6 °C 55 °F /  12.8 °C 29.9in /  1013.8hPa Calm     95% 0in /  0.0mm
02:29 56.5 °F /  13.6 °C 55 °F /  12.8 °C 29.9in /  1013.8hPa Calm     95% 0in /  0.0mm
02:34 56.3 °F /  13.5 °C 54.9 °F /  12.7 °C 29.9in /  1013.8hPa Calm     95% 0in /  0.0mm
02:39 56.3 °F /  13.5 °C 54.9 °F /  12.7 °C 29.9in /  1013.8hPa Calm   3.1mph /  5.0km/h 95% 0in /  0.0mm
02:44 56.3 °F /  13.5 °C 54.9 °F /  12.7 °C 29.9in /  1013.8hPa Calm   3.1mph /  5.0km/h 95% 0in /  0.0mm
02:49 55.9 °F /  13.3 °C 54.5 °F /  12.5 °C 29.9in /  1013.4hPa Calm   1.6mph /  2.6km/h 95% 0in /  0.0mm
02:54 55.9 °F /  13.3 °C 54.5 °F /  12.5 °C 29.9in /  1013.4hPa Calm     95% 0in /  0.0mm
02:59 55.8 °F /  13.2 °C 54.3 °F /  12.4 °C 29.9in /  1013.4hPa Calm     95% 0in /  0.0mm
03:04 55.8 °F /  13.2 °C 54.3 °F /  12.4 °C 29.9in /  1013.4hPa Calm     95% 0in /  0.0mm
03:09 55.6 °F /  13.1 °C 54.1 °F /  12.3 °C 29.9in /  1013.4hPa Calm     95% 0in /  0.0mm
03:14 55.8 °F /  13.2 °C 54.3 °F /  12.4 °C 29.9in /  1013.4hPa Calm     95% 0in /  0.0mm
03:19 55.9 °F /  13.3 °C 54.5 °F /  12.5 °C 29.9in /  1013.8hPa Calm     95% 0in /  0.0mm
03:24 55.9 °F /  13.3 °C 54.5 °F /  12.5 °C 29.9in /  1013.4hPa Calm     95% 0in /  0.0mm
03:29 55.8 °F /  13.2 °C 54.3 °F /  12.4 °C 29.9in /  1013.8hPa Calm   0.7mph /  1.1km/h 95% 0in /  0.0mm
03:34 55.8 °F /  13.2 °C 54.3 °F /  12.4 °C 29.9in /  1013.8hPa Calm   2.2mph /  3.5km/h 95% 0in /  0.0mm
03:39 55.8 °F /  13.2 °C 54.3 °F /  12.4 °C 29.9in /  1013.8hPa Calm   2.2mph /  3.5km/h 95% 0in /  0.0mm
03:44 55.8 °F /  13.2 °C 54.3 °F /  12.4 °C 29.9in /  1013.8hPa Calm     95% 0in /  0.0mm
03:49 55.6 °F /  13.1 °C 54.5 °F /  12.5 °C 29.9in /  1013.8hPa Calm     96% 0in /  0.0mm
03:54 55.8 °F /  13.2 °C 54.7 °F /  12.6 °C 29.9in /  1013.8hPa Calm   0.7mph /  1.1km/h 96% 0in /  0.0mm
03:59 55.8 °F /  13.2 °C 54.7 °F /  12.6 °C 29.9in /  1013.8hPa Calm   0.7mph /  1.1km/h 96% 0in /  0.0mm
04:05 55.6 °F /  13.1 °C 54.5 °F /  12.5 °C 29.9in /  1013.8hPa Calm   0.7mph /  1.1km/h 96% 0in /  0.0mm
04:10 55.6 °F /  13.1 °C 54.5 °F /  12.5 °C 29.9in /  1013.8hPa Calm   1.6mph /  2.6km/h 96% 0in /  0.0mm
04:15 55.8 °F /  13.2 °C 54.7 °F /  12.6 °C 29.9in /  1013.8hPa Calm   1.6mph /  2.6km/h 96% 0in /  0.0mm
04:20 55.9 °F /  13.3 °C 54.9 °F /  12.7 °C 29.9in /  1013.8hPa Calm   0.7mph /  1.1km/h 96% 0in /  0.0mm
04:25 55.8 °F /  13.2 °C 54.7 °F /  12.6 °C 29.9in /  1013.8hPa Calm   0.7mph /  1.1km/h 96% 0in /  0.0mm
04:30 55.9 °F /  13.3 °C 54.9 °F /  12.7 °C 29.9in /  1013.8hPa Calm     96% 0in /  0.0mm
04:35 55.8 °F /  13.2 °C 54.7 °F /  12.6 °C 29.9in /  1013.8hPa Calm     96% 0in /  0.0mm
04:40 55.8 °F /  13.2 °C 54.7 °F /  12.6 °C 29.9in /  1013.8hPa Calm     96% 0in /  0.0mm
04:45 55.8 °F /  13.2 °C 54.7 °F /  12.6 °C 29.9in /  1013.8hPa Calm     96% 0in /  0.0mm
04:50 55.6 °F /  13.1 °C 54.5 °F /  12.5 °C 29.9in /  1013.8hPa Calm     96% 0in /  0.0mm
04:55 55.8 °F /  13.2 °C 54.7 °F /  12.6 °C 29.9in /  1014.1hPa Calm     96% 0in /  0.0mm
05:00 55.8 °F /  13.2 °C 54.7 °F /  12.6 °C 29.9in /  1014.1hPa Calm     96% 0in /  0.0mm
05:05 55.9 °F /  13.3 °C 54.9 °F /  12.7 °C 29.9in /  1014.1hPa Calm     96% 0in /  0.0mm
05:10 55.8 °F /  13.2 °C 54.7 °F /  12.6 °C 29.9in /  1014.1hPa Calm     96% 0in /  0.0mm
05:15 56.1 °F /  13.4 °C 55 °F /  12.8 °C 29.9in /  1014.1hPa South 0.7mph /  1.1km/h 3.1mph /  5.0km/h 96% 0in /  0.0mm
05:20 56.3 °F /  13.5 °C 55.6 °F /  13.1 °C 29.9in /  1014.1hPa Calm   3.1mph /  5.0km/h 97% 0in /  0.0mm
05:25 55.9 °F /  13.3 °C 55 °F /  12.8 °C 29.9in /  1014.1hPa Calm   2.2mph /  3.5km/h 97% 0in /  0.0mm
05:30 55.8 °F /  13.2 °C 54.9 °F /  12.7 °C 29.9in /  1014.1hPa Calm   0.7mph /  1.1km/h 97% 0in /  0.0mm
05:35 55.6 °F /  13.1 °C 54.9 °F /  12.7 °C 29.9in /  1014.1hPa South 1.6mph /  2.6km/h 3.1mph /  5.0km/h 97% 0in /  0.0mm
05:40 55.8 °F /  13.2 °C 54.9 °F /  12.7 °C 29.9in /  1014.1hPa South 2.2mph /  3.5km/h 3.1mph /  5.0km/h 97% 0in /  0.0mm
05:45 56.3 °F /  13.5 °C 55.6 °F /  13.1 °C 29.9in /  1014.1hPa Calm   3.8mph /  6.1km/h 97% 0in /  0.0mm
05:50 56.3 °F /  13.5 °C 55.6 °F /  13.1 °C 29.9in /  1014.1hPa South 1.6mph /  2.6km/h 3.8mph /  6.1km/h 97% 0in /  0.0mm
05:52 56.3 °F /  13.5 °C 55.6 °F /  13.1 °C 29.9in /  1014.1hPa South 1.6mph /  2.6km/h 3.8mph /  6.1km/h 97% 0in /  0.0mm
05:57 56.3 °F /  13.5 °C 55.6 °F /  13.1 °C 29.9in /  1014.1hPa South 1.6mph /  2.6km/h 3.8mph /  6.1km/h 97% 0in /  0.0mm
06:02 56.7 °F /  13.7 °C 55.8 °F /  13.2 °C 30in /  1014.4hPa South 1.6mph /  2.6km/h 5.4mph /  8.7km/h 97% 0in /  0.0mm
06:07 56.7 °F /  13.7 °C 55.8 °F /  13.2 °C 30in /  1014.4hPa SSE 1.6mph /  2.6km/h 5.4mph /  8.7km/h 97% 0in /  0.0mm
06:12 56.5 °F /  13.6 °C 55.6 °F /  13.1 °C 30in /  1014.4hPa SSE 0.7mph /  1.1km/h 3.1mph /  5.0km/h 97% 0in /  0.0mm
06:17 56.5 °F /  13.6 °C 55.6 °F /  13.1 °C 30in /  1014.4hPa Calm   3.1mph /  5.0km/h 97% 0in /  0.0mm
06:22 56.5 °F /  13.6 °C 55.6 °F /  13.1 °C 30in /  1014.4hPa Calm   3.1mph /  5.0km/h 97% 0in /  0.0mm
06:27 56.7 °F /  13.7 °C 55.8 °F /  13.2 °C 30in /  1014.4hPa South 0.7mph /  1.1km/h 3.8mph /  6.1km/h 97% 0in /  0.0mm
06:32 56.7 °F /  13.7 °C 55.8 °F /  13.2 °C 30in /  1014.4hPa SSE 1.6mph /  2.6km/h 3.8mph /  6.1km/h 97% 0in /  0.0mm
06:37 56.7 °F /  13.7 °C 55.8 °F /  13.2 °C 30in /  1014.4hPa SE 0.7mph /  1.1km/h 3.1mph /  5.0km/h 97% 0in /  0.0mm
06:42 56.8 °F /  13.8 °C 55.9 °F /  13.3 °C 30in /  1014.4hPa Calm   3.1mph /  5.0km/h 97% 0in /  0.0mm
06:47 56.5 °F /  13.6 °C 55.6 °F /  13.1 °C 30in /  1014.4hPa Calm   3.1mph /  5.0km/h 97% 0in /  0.0mm
06:52 56.1 °F /  13.4 °C 55.2 °F /  12.9 °C 30in /  1014.4hPa Calm   1.6mph /  2.6km/h 97% 0in /  0.0mm
06:57 55.9 °F /  13.3 °C 55 °F /  12.8 °C 30in /  1014.4hPa Calm   0.7mph /  1.1km/h 97% 0in /  0.0mm
07:02 56.1 °F /  13.4 °C 55.6 °F /  13.1 °C 30in /  1014.4hPa Calm   0.7mph /  1.1km/h 98% 0in /  0.0mm
07:07 55.8 °F /  13.2 °C 54.9 °F /  12.7 °C 30in /  1014.8hPa Calm   1.6mph /  2.6km/h 97% 0in /  0.0mm
07:12 55.8 °F /  13.2 °C 54.9 °F /  12.7 °C 30in /  1014.8hPa Calm   1.6mph /  2.6km/h 97% 0in /  0.0mm
07:17 55.6 °F /  13.1 °C 54.9 °F /  12.7 °C 30in /  1014.8hPa Calm     97% 0in /  0.0mm
07:22 55.8 °F /  13.2 °C 55.2 °F /  12.9 °C 30in /  1014.8hPa Calm   1.6mph /  2.6km/h 98% 0in /  0.0mm
07:27 55.9 °F /  13.3 °C 55.4 °F /  13.0 °C 30in /  1014.8hPa Calm   1.6mph /  2.6km/h 98% 0in /  0.0mm
07:32 56.1 °F /  13.4 °C 55.6 °F /  13.1 °C 30in /  1014.8hPa South 0.7mph /  1.1km/h 1.6mph /  2.6km/h 98% 0in /  0.0mm
07:37 56.5 °F /  13.6 °C 55.9 °F /  13.3 °C 30in /  1014.8hPa South 0.7mph /  1.1km/h 2.2mph /  3.5km/h 98% 0in /  0.0mm
07:42 57 °F /  13.9 °C 56.5 °F /  13.6 °C 30in /  1014.8hPa South 0.7mph /  1.1km/h 2.2mph /  3.5km/h 98% 0in /  0.0mm
07:47 59.4 °F /  15.2 °C 58.5 °F /  14.7 °C 30in /  1014.8hPa Calm   2.2mph /  3.5km/h 97% 0in /  0.0mm
07:52 61.9 °F /  16.6 °C 60.6 °F /  15.9 °C 30in /  1014.8hPa SE 0.7mph /  1.1km/h 1.6mph /  2.6km/h 96% 0in /  0.0mm
07:57 64.2 °F /  17.9 °C 62.8 °F /  17.1 °C 30in /  1014.8hPa Calm   2.2mph /  3.5km/h 95% 0in /  0.0mm
08:02 66.9 °F /  19.4 °C 65.1 °F /  18.4 °C 30in /  1014.8hPa Calm   2.2mph /  3.5km/h 94% 0in /  0.0mm
08:07 66.4 °F /  19.1 °C 64 °F /  17.8 °C 30in /  1014.8hPa South 1.6mph /  2.6km/h 3.1mph /  5.0km/h 92% 0in /  0.0mm
08:13 67.1 °F /  19.5 °C 63.9 °F /  17.7 °C 30in /  1015.1hPa Calm   3.1mph /  5.0km/h 89% 0in /  0.0mm
08:18 67.6 °F /  19.8 °C 63 °F /  17.2 °C 30in /  1015.1hPa Calm   1.6mph /  2.6km/h 85% 0in /  0.0mm
08:23 69.6 °F /  20.9 °C 63.7 °F /  17.6 °C 30in /  1014.8hPa Calm   1.6mph /  2.6km/h 81% 0in /  0.0mm
08:28 70.9 °F /  21.6 °C 62.2 °F /  16.8 °C 30in /  1015.1hPa Calm   2.2mph /  3.5km/h 74% 0in /  0.0mm
08:33 71.8 °F /  22.1 °C 61.9 °F /  16.6 °C 30in /  1014.8hPa Calm   2.2mph /  3.5km/h 71% 0in /  0.0mm
08:38 73.4 °F /  23.0 °C 63.1 °F /  17.3 °C 30in /  1014.8hPa Calm   1.6mph /  2.6km/h 70% 0in /  0.0mm
08:43 74.5 °F /  23.6 °C 63.3 °F /  17.4 °C 30in /  1014.8hPa ESE 0.7mph /  1.1km/h 1.6mph /  2.6km/h 68% 0in /  0.0mm
08:48 75.2 °F /  24.0 °C 62.2 °F /  16.8 °C 30in /  1015.1hPa ESE 1.6mph /  2.6km/h 2.2mph /  3.5km/h 64% 0in /  0.0mm
08:53 76.1 °F /  24.5 °C 63.1 °F /  17.3 °C 30in /  1014.8hPa Calm   2.2mph /  3.5km/h 64% 0in /  0.0mm
08:58 77 °F /  25.0 °C 62.1 °F /  16.7 °C 30in /  1014.8hPa ESE 0.7mph /  1.1km/h 2.2mph /  3.5km/h 60% 0in /  0.0mm
09:03 76.8 °F /  24.9 °C 63 °F /  17.2 °C 30in /  1015.1hPa Calm   2.2mph /  3.5km/h 62% 0in /  0.0mm
09:08 77.7 °F /  25.4 °C 62.8 °F /  17.1 °C 30in /  1015.1hPa Calm   2.2mph /  3.5km/h 60% 0in /  0.0mm
09:13 78.4 °F /  25.8 °C 63 °F /  17.2 °C 30in /  1015.1hPa Calm   2.2mph /  3.5km/h 59% 0in /  0.0mm
09:18 80.1 °F /  26.7 °C 63 °F /  17.2 °C 30in /  1015.1hPa SW 1.6mph /  2.6km/h 3.1mph /  5.0km/h 56% 0in /  0.0mm
09:23 79.9 °F /  26.6 °C 61.9 °F /  16.6 °C 30in /  1015.1hPa WSW 2.2mph /  3.5km/h 3.8mph /  6.1km/h 54% 0in /  0.0mm
09:28 79.9 °F /  26.6 °C 62.2 °F /  16.8 °C 30in /  1015.1hPa West 1.6mph /  2.6km/h 3.8mph /  6.1km/h 55% 0in /  0.0mm
09:33 79.9 °F /  26.6 °C 60.3 °F /  15.7 °C 30in /  1015.1hPa West 1.6mph /  2.6km/h 4.5mph /  7.2km/h 51% 0in /  0.0mm
09:38 78.4 °F /  25.8 °C 60.4 °F /  15.8 °C 30in /  1015.1hPa WNW 3.1mph /  5.0km/h 4.5mph /  7.2km/h 54% 0in /  0.0mm
09:43 78.4 °F /  25.8 °C 61 °F /  16.1 °C 30in /  1015.1hPa WNW 2.2mph /  3.5km/h 4.5mph /  7.2km/h 55% 0in /  0.0mm
09:48 78.1 °F /  25.6 °C 60.6 °F /  15.9 °C 30in /  1015.1hPa West 3.1mph /  5.0km/h 4.5mph /  7.2km/h 55% 0in /  0.0mm
09:53 78.1 °F /  25.6 °C 60.6 °F /  15.9 °C 30in /  1015.1hPa West 3.1mph /  5.0km/h 5.4mph /  8.7km/h 55% 0in /  0.0mm
09:58 78.3 °F /  25.7 °C 60.8 °F /  16.0 °C 30in /  1015.1hPa WSW 1.6mph /  2.6km/h 5.4mph /  8.7km/h 55% 0in /  0.0mm
10:03 78.3 °F /  25.7 °C 60.3 °F /  15.7 °C 30in /  1015.1hPa WNW 4.5mph /  7.2km/h 7.6mph /  12.2km/h 54% 0in /  0.0mm
10:08 78.1 °F /  25.6 °C 59.5 °F /  15.3 °C 30in /  1015.1hPa WNW 3.1mph /  5.0km/h 7.6mph /  12.2km/h 53% 0in /  0.0mm
10:13 77.7 °F /  25.4 °C 59.7 °F /  15.4 °C 30in /  1015.1hPa WSW 2.2mph /  3.5km/h 8.3mph /  13.4km/h 54% 0in /  0.0mm
10:18 78.3 °F /  25.7 °C 59.7 °F /  15.4 °C 30in /  1015.5hPa WSW 4.5mph /  7.2km/h 8.3mph /  13.4km/h 53% 0in /  0.0mm
10:23 76.6 °F /  24.8 °C 58.8 °F /  14.9 °C 30in /  1015.5hPa WSW 3.8mph /  6.1km/h 7.6mph /  12.2km/h 54% 0in /  0.0mm
10:28 76.6 °F /  24.8 °C 61.3 °F /  16.3 °C 30in /  1015.5hPa WSW 3.1mph /  5.0km/h 8.3mph /  13.4km/h 59% 0in /  0.0mm
10:33 77 °F /  25.0 °C 60.1 °F /  15.6 °C 30in /  1015.5hPa WSW 4.5mph /  7.2km/h 8.3mph /  13.4km/h 56% 0in /  0.0mm
10:38 77 °F /  25.0 °C 59.2 °F /  15.1 °C 30in /  1015.5hPa West 4.5mph /  7.2km/h 9.2mph /  14.8km/h 54% 0in /  0.0mm
10:43 76.6 °F /  24.8 °C 59.4 °F /  15.2 °C 30in /  1015.5hPa WNW 6.9mph /  11.1km/h 10.7mph /  17.2km/h 55% 0in /  0.0mm
10:48 76.8 °F /  24.9 °C 60.4 °F /  15.8 °C 30in /  1015.5hPa NW 3.8mph /  6.1km/h 10.7mph /  17.2km/h 57% 0in /  0.0mm
10:53 76.5 °F /  24.7 °C 59.5 °F /  15.3 °C 30in /  1015.5hPa West 4.5mph /  7.2km/h 9.2mph /  14.8km/h 56% 0in /  0.0mm
10:58 75.4 °F /  24.1 °C 59.5 °F /  15.3 °C 30in /  1015.5hPa WSW 2.2mph /  3.5km/h 8.3mph /  13.4km/h 58% 0in /  0.0mm
11:03 75.7 °F /  24.3 °C 59.9 °F /  15.5 °C 30in /  1015.5hPa WNW 8.3mph /  13.4km/h 9.8mph /  15.8km/h 58% 0in /  0.0mm
11:08 74.8 °F /  23.8 °C 60.1 °F /  15.6 °C 30in /  1015.8hPa WNW 4.5mph /  7.2km/h 9.8mph /  15.8km/h 60% 0in /  0.0mm
11:13 75.2 °F /  24.0 °C 59.9 °F /  15.5 °C 30in /  1015.8hPa West 3.8mph /  6.1km/h 8.3mph /  13.4km/h 59% 0in /  0.0mm
11:19 75.4 °F /  24.1 °C 61 °F /  16.1 °C 30in /  1015.8hPa WNW 3.8mph /  6.1km/h 8.3mph /  13.4km/h 61% 0in /  0.0mm
11:24 75.7 °F /  24.3 °C 60.4 °F /  15.8 °C 30in /  1015.5hPa WNW 6.9mph /  11.1km/h 10.7mph /  17.2km/h 59% 0in /  0.0mm
11:29 75.9 °F /  24.4 °C 61.2 °F /  16.2 °C 30in /  1015.8hPa WNW 6mph /  9.7km/h 11.4mph /  18.3km/h 60% 0in /  0.0mm
11:34 76.3 °F /  24.6 °C 61.9 °F /  16.6 °C 30in /  1015.8hPa WNW 6.9mph /  11.1km/h 12.1mph /  19.5km/h 61% 0in /  0.0mm
11:39 75.9 °F /  24.4 °C 60.1 °F /  15.6 °C 30in /  1015.8hPa NW 6mph /  9.7km/h 12.1mph /  19.5km/h 58% 0in /  0.0mm
11:44 76.3 °F /  24.6 °C 61.3 °F /  16.3 °C 30in /  1015.8hPa NW 6.9mph /  11.1km/h 12.1mph /  19.5km/h 60% 0in /  0.0mm
11:49 77 °F /  25.0 °C 60.6 °F /  15.9 °C 30in /  1015.8hPa NW 7.6mph /  12.2km/h 11.4mph /  18.3km/h 57% 0in /  0.0mm
11:54 77 °F /  25.0 °C 61.2 °F /  16.2 °C 30in /  1016.1hPa NW 7.6mph /  12.2km/h 12.1mph /  19.5km/h 58% 0in /  0.0mm
11:59 75.2 °F /  24.0 °C 59.9 °F /  15.5 °C 30in /  1015.8hPa NW 7.6mph /  12.2km/h 12.1mph /  19.5km/h 59% 0in /  0.0mm
12:04 76.3 °F /  24.6 °C 60.1 °F /  15.6 °C 30in /  1016.1hPa WNW 7.6mph /  12.2km/h 12.1mph /  19.5km/h 57% 0in /  0.0mm
12:09 76.3 °F /  24.6 °C 58.5 °F /  14.7 °C 30in /  1016.1hPa WSW 6.9mph /  11.1km/h 11.4mph /  18.3km/h 54% 0in /  0.0mm
12:14 77 °F /  25.0 °C 60.1 °F /  15.6 °C 30in /  1015.8hPa West 5.4mph /  8.7km/h 9.8mph /  15.8km/h 56% 0in /  0.0mm
12:19 77.4 °F /  25.2 °C 59.5 °F /  15.3 °C 30in /  1015.8hPa West 4.5mph /  7.2km/h 9.8mph /  15.8km/h 54% 0in /  0.0mm
12:24 77.2 °F /  25.1 °C 59.7 °F /  15.4 °C 30in /  1015.8hPa WNW 5.4mph /  8.7km/h 10.7mph /  17.2km/h 55% 0in /  0.0mm
12:29 78.1 °F /  25.6 °C 61.2 °F /  16.2 °C 30in /  1015.8hPa WNW 4.5mph /  7.2km/h 10.7mph /  17.2km/h 56% 0in /  0.0mm
12:34 78.1 °F /  25.6 °C 61.2 °F /  16.2 °C 30in /  1016.1hPa WNW 6mph /  9.7km/h 9.2mph /  14.8km/h 56% 0in /  0.0mm
12:39 77.9 °F /  25.5 °C 59.4 °F /  15.2 °C 30in /  1015.8hPa NW 6mph /  9.7km/h 12.1mph /  19.5km/h 53% 0in /  0.0mm
12:44 77.2 °F /  25.1 °C 59.4 °F /  15.2 °C 30in /  1015.8hPa WNW 3.8mph /  6.1km/h 12.1mph /  19.5km/h 54% 0in /  0.0mm
12:49 77.2 °F /  25.1 °C 59.4 °F /  15.2 °C 30in /  1016.1hPa WNW 5.4mph /  8.7km/h 9.8mph /  15.8km/h 54% 0in /  0.0mm
12:54 76.6 °F /  24.8 °C 59.4 °F /  15.2 °C 30in /  1016.1hPa NW 4.5mph /  7.2km/h 12.1mph /  19.5km/h 55% 0in /  0.0mm
12:59 76.8 °F /  24.9 °C 60.1 °F /  15.6 °C 30in /  1016.1hPa NW 5.4mph /  8.7km/h 12.1mph /  19.5km/h 56% 0in /  0.0mm
13:04 77 °F /  25.0 °C 58.6 °F /  14.8 °C 30in /  1015.8hPa WNW 4.5mph /  7.2km/h 9.2mph /  14.8km/h 53% 0in /  0.0mm
13:09 76.8 °F /  24.9 °C 60.1 °F /  15.6 °C 30in /  1015.8hPa NW 6.9mph /  11.1km/h 12.1mph /  19.5km/h 56% 0in /  0.0mm
13:14 77 °F /  25.0 °C 60.1 °F /  15.6 °C 30in /  1015.5hPa NW 5.4mph /  8.7km/h 12.1mph /  19.5km/h 56% 0in /  0.0mm
13:19 76.6 °F /  24.8 °C 59.7 °F /  15.4 °C 30in /  1015.8hPa WNW 8.3mph /  13.4km/h 10.7mph /  17.2km/h 56% 0in /  0.0mm
13:24 76.8 °F /  24.9 °C 60.4 °F /  15.8 °C 30in /  1015.8hPa NW 8.3mph /  13.4km/h 15.9mph /  25.6km/h 57% 0in /  0.0mm
13:30 76.3 °F /  24.6 °C 60.4 °F /  15.8 °C 30in /  1015.8hPa NW 5.4mph /  8.7km/h 15.9mph /  25.6km/h 58% 0in /  0.0mm
13:35 77.2 °F /  25.1 °C 59.4 °F /  15.2 °C 30in /  1015.8hPa WNW 8.3mph /  13.4km/h 13mph /  20.9km/h 54% 0in /  0.0mm
13:40 77.2 °F /  25.1 °C 60.3 °F /  15.7 °C 30in /  1015.8hPa WNW 4.5mph /  7.2km/h 13mph /  20.9km/h 56% 0in /  0.0mm
13:45 77.9 °F /  25.5 °C 60.4 °F /  15.8 °C 30in /  1015.8hPa WNW 3.1mph /  5.0km/h 13mph /  20.9km/h 55% 0in /  0.0mm
13:50 77.7 °F /  25.4 °C 59.7 °F /  15.4 °C 30in /  1015.8hPa WNW 7.6mph /  12.2km/h 13.6mph /  21.9km/h 54% 0in /  0.0mm
13:55 77.7 °F /  25.4 °C 60.3 °F /  15.7 °C 30in /  1015.8hPa WNW 4.5mph /  7.2km/h 13.6mph /  21.9km/h 55% 0in /  0.0mm
14:00 78.1 °F /  25.6 °C 61.2 °F /  16.2 °C 30in /  1015.8hPa WNW 5.4mph /  8.7km/h 13.6mph /  21.9km/h 56% 0in /  0.0mm
14:05 78.1 °F /  25.6 °C 59.5 °F /  15.3 °C 30in /  1015.8hPa WNW 6mph /  9.7km/h 13mph /  20.9km/h 53% 0in /  0.0mm
14:10 77.2 °F /  25.1 °C 59.7 °F /  15.4 °C 30in /  1015.8hPa WNW 5.4mph /  8.7km/h 13mph /  20.9km/h 55% 0in /  0.0mm
14:15 77.9 °F /  25.5 °C 60.1 °F /  15.6 °C 30in /  1015.8hPa WNW 4.5mph /  7.2km/h 12.1mph /  19.5km/h 54% 0in /  0.0mm
14:20 77.9 °F /  25.5 °C 61 °F /  16.1 °C 30in /  1015.8hPa NW 5.4mph /  8.7km/h 10.7mph /  17.2km/h 56% 0in /  0.0mm
14:25 78.1 °F /  25.6 °C 60.1 °F /  15.6 °C 30in /  1015.8hPa NW 6mph /  9.7km/h 11.4mph /  18.3km/h 54% 0in /  0.0mm
14:30 78.1 °F /  25.6 °C 61.2 °F /  16.2 °C 30in /  1015.8hPa NW 5.4mph /  8.7km/h 11.4mph /  18.3km/h 56% 0in /  0.0mm
14:35 77.9 °F /  25.5 °C 58.8 °F /  14.9 °C 30in /  1015.8hPa WNW 6mph /  9.7km/h 9.8mph /  15.8km/h 52% 0in /  0.0mm
14:40 77.7 °F /  25.4 °C 60.3 °F /  15.7 °C 30in /  1015.8hPa NW 5.4mph /  8.7km/h 9.8mph /  15.8km/h 55% 0in /  0.0mm
14:45 77.7 °F /  25.4 °C 59.7 °F /  15.4 °C 30in /  1015.8hPa NW 5.4mph /  8.7km/h 10.7mph /  17.2km/h 54% 0in /  0.0mm
14:50 77 °F /  25.0 °C 59.2 °F /  15.1 °C 30in /  1015.8hPa WNW 5.4mph /  8.7km/h 10.7mph /  17.2km/h 54% 0in /  0.0mm
14:55 77.5 °F /  25.3 °C 60.1 °F /  15.6 °C 30in /  1015.5hPa NW 5.4mph /  8.7km/h 9.8mph /  15.8km/h 55% 0in /  0.0mm
15:00 78.1 °F /  25.6 °C 60.1 °F /  15.6 °C 30in /  1015.5hPa NW 6.9mph /  11.1km/h 10.7mph /  17.2km/h 54% 0in /  0.0mm
15:05 77.4 °F /  25.2 °C 60.4 °F /  15.8 °C 30in /  1015.5hPa NW 4.5mph /  7.2km/h 10.7mph /  17.2km/h 56% 0in /  0.0mm
15:10 77.4 °F /  25.2 °C 60.4 °F /  15.8 °C 30in /  1015.5hPa NW 8.3mph /  13.4km/h 10.7mph /  17.2km/h 56% 0in /  0.0mm
15:15 77.4 °F /  25.2 °C 61 °F /  16.1 °C 30in /  1015.5hPa NNW 5.4mph /  8.7km/h 10.7mph /  17.2km/h 57% 0in /  0.0mm
15:21 77.2 °F /  25.1 °C 60.3 °F /  15.7 °C 30in /  1015.5hPa NW 8.3mph /  13.4km/h 12.1mph /  19.5km/h 56% 0in /  0.0mm
15:26 77.4 °F /  25.2 °C 61 °F /  16.1 °C 30in /  1015.5hPa NW 4.5mph /  7.2km/h 12.1mph /  19.5km/h 57% 0in /  0.0mm
15:31 77.4 °F /  25.2 °C 59.5 °F /  15.3 °C 30in /  1015.8hPa NW 6mph /  9.7km/h 12.1mph /  19.5km/h 54% 0in /  0.0mm
15:36 77.5 °F /  25.3 °C 60.1 °F /  15.6 °C 30in /  1015.5hPa NW 6mph /  9.7km/h 12.1mph /  19.5km/h 55% 0in /  0.0mm
15:41 76.8 °F /  24.9 °C 61 °F /  16.1 °C 30in /  1015.5hPa NW 6.9mph /  11.1km/h 12.1mph /  19.5km/h 58% 0in /  0.0mm
15:46 77.5 °F /  25.3 °C 60.6 °F /  15.9 °C 30in /  1015.5hPa NW 5.4mph /  8.7km/h 12.1mph /  19.5km/h 56% 0in /  0.0mm
15:51 77.9 °F /  25.5 °C 60.4 °F /  15.8 °C 30in /  1015.5hPa NW 3.8mph /  6.1km/h 11.4mph /  18.3km/h 55% 0in /  0.0mm
15:56 78.1 °F /  25.6 °C 60.6 °F /  15.9 °C 30in /  1015.5hPa NW 6mph /  9.7km/h 11.4mph /  18.3km/h 55% 0in /  0.0mm
16:01 78.1 °F /  25.6 °C 60.6 °F /  15.9 °C 30in /  1015.5hPa WNW 7.6mph /  12.2km/h 11.4mph /  18.3km/h 55% 0in /  0.0mm
16:06 78.1 °F /  25.6 °C 60.6 °F /  15.9 °C 30in /  1015.5hPa WNW 7.6mph /  12.2km/h 10.7mph /  17.2km/h 55% 0in /  0.0mm
16:11 78.1 °F /  25.6 °C 60.1 °F /  15.6 °C 30in /  1015.5hPa West 5.4mph /  8.7km/h 10.7mph /  17.2km/h 54% 0in /  0.0mm
16:16 78.3 °F /  25.7 °C 59.7 °F /  15.4 °C 30in /  1015.5hPa West 5.4mph /  8.7km/h 13mph /  20.9km/h 53% 0in /  0.0mm
16:24 78.3 °F /  25.7 °C 60.8 °F /  16.0 °C 30in /  1015.5hPa West 7.6mph /  12.2km/h 13mph /  20.9km/h 55% 0in /  0.0mm
16:29 78.1 °F /  25.6 °C 60.1 °F /  15.6 °C 30in /  1015.1hPa WNW 4.5mph /  7.2km/h 12.1mph /  19.5km/h 54% 0in /  0.0mm
16:34 78.1 °F /  25.6 °C 60.1 °F /  15.6 °C 30in /  1015.5hPa West 4.5mph /  7.2km/h 12.1mph /  19.5km/h 54% 0in /  0.0mm
16:39 78.1 °F /  25.6 °C 60.6 °F /  15.9 °C 30in /  1015.1hPa West 3.8mph /  6.1km/h 11.4mph /  18.3km/h 55% 0in /  0.0mm
16:44 78.1 °F /  25.6 °C 61.2 °F /  16.2 °C 30in /  1015.1hPa WNW 3.8mph /  6.1km/h 10.7mph /  17.2km/h 56% 0in /  0.0mm
16:49 78.1 °F /  25.6 °C 61.2 °F /  16.2 °C 30in /  1015.1hPa WNW 3.8mph /  6.1km/h 11.4mph /  18.3km/h 56% 0in /  0.0mm
16:54 78.1 °F /  25.6 °C 61.2 °F /  16.2 °C 30in /  1015.1hPa WNW 5.4mph /  8.7km/h 14.5mph /  23.3km/h 56% 0in /  0.0mm
16:59 78.1 °F /  25.6 °C 61.5 °F /  16.4 °C 30in /  1015.1hPa WSW 6.9mph /  11.1km/h 14.5mph /  23.3km/h 57% 0in /  0.0mm
17:04 77.9 °F /  25.5 °C 60.4 °F /  15.8 °C 30in /  1015.1hPa WSW 4.5mph /  7.2km/h 12.1mph /  19.5km/h 55% 0in /  0.0mm
17:09 77.9 °F /  25.5 °C 61.5 °F /  16.4 °C 30in /  1015.1hPa West 6mph /  9.7km/h 12.1mph /  19.5km/h 57% 0in /  0.0mm
17:14 77.9 °F /  25.5 °C 62.1 °F /  16.7 °C 30in /  1015.1hPa West 6.9mph /  11.1km/h 12.1mph /  19.5km/h 58% 0in /  0.0mm
17:19 77.7 °F /  25.4 °C 60.8 °F /  16.0 °C 30in /  1015.1hPa West 5.4mph /  8.7km/h 10.7mph /  17.2km/h 56% 0in /  0.0mm
17:24 78.1 °F /  25.6 °C 62.1 °F /  16.7 °C 30in /  1015.1hPa West 8.3mph /  13.4km/h 10.7mph /  17.2km/h 58% 0in /  0.0mm
17:29 78.1 °F /  25.6 °C 61.2 °F /  16.2 °C 30in /  1015.1hPa West 5.4mph /  8.7km/h 10.7mph /  17.2km/h 56% 0in /  0.0mm
17:34 78.1 °F /  25.6 °C 60.6 °F /  15.9 °C 30in /  1015.1hPa WSW 6.9mph /  11.1km/h 11.4mph /  18.3km/h 55% 0in /  0.0mm
17:39 77.9 °F /  25.5 °C 61 °F /  16.1 °C 30in /  1014.8hPa WSW 4.5mph /  7.2km/h 11.4mph /  18.3km/h 56% 0in /  0.0mm
17:44 78.1 °F /  25.6 °C 60.6 °F /  15.9 °C 30in /  1015.1hPa West 5.4mph /  8.7km/h 11.4mph /  18.3km/h 55% 0in /  0.0mm
17:49 77.9 °F /  25.5 °C 61 °F /  16.1 °C 30in /  1014.8hPa West 3.1mph /  5.0km/h 9.8mph /  15.8km/h 56% 0in /  0.0mm
17:54 78.1 °F /  25.6 °C 61.2 °F /  16.2 °C 30in /  1014.8hPa West 5.4mph /  8.7km/h 9.8mph /  15.8km/h 56% 0in /  0.0mm
17:59 78.1 °F /  25.6 °C 60.6 °F /  15.9 °C 30in /  1014.8hPa West 3.8mph /  6.1km/h 8.3mph /  13.4km/h 55% 0in /  0.0mm
18:04 77.7 °F /  25.4 °C 61.3 °F /  16.3 °C 30in /  1014.8hPa West 4.5mph /  7.2km/h 9.2mph /  14.8km/h 57% 0in /  0.0mm
18:09 77.4 °F /  25.2 °C 60.4 °F /  15.8 °C 30in /  1014.8hPa WNW 3.1mph /  5.0km/h 11.4mph /  18.3km/h 56% 0in /  0.0mm
18:14 77.2 °F /  25.1 °C 60.3 °F /  15.7 °C 30in /  1014.8hPa WNW 3.1mph /  5.0km/h 11.4mph /  18.3km/h 56% 0in /  0.0mm
18:19 77.4 °F /  25.2 °C 61 °F /  16.1 °C 30in /  1014.8hPa West 6.9mph /  11.1km/h 9.8mph /  15.8km/h 57% 0in /  0.0mm
18:24 77.2 °F /  25.1 °C 61.3 °F /  16.3 °C 30in /  1014.8hPa West 5.4mph /  8.7km/h 10.7mph /  17.2km/h 58% 0in /  0.0mm
18:29 76.8 °F /  24.9 °C 61.3 °F /  16.3 °C 30in /  1015.1hPa West 5.4mph /  8.7km/h 10.7mph /  17.2km/h 59% 0in /  0.0mm
18:34 76.3 °F /  24.6 °C 61.9 °F /  16.6 °C 30in /  1014.8hPa WNW 5.4mph /  8.7km/h 10.7mph /  17.2km/h 61% 0in /  0.0mm
18:39 76.3 °F /  24.6 °C 61.9 °F /  16.6 °C 30in /  1015.1hPa WNW 6mph /  9.7km/h 11.4mph /  18.3km/h 61% 0in /  0.0mm
18:44 75.9 °F /  24.4 °C 62.1 °F /  16.7 °C 30in /  1015.1hPa WNW 5.4mph /  8.7km/h 11.4mph /  18.3km/h 62% 0in /  0.0mm
18:49 76.8 °F /  24.9 °C 62.4 °F /  16.9 °C 30in /  1015.1hPa WNW 3.1mph /  5.0km/h 9.2mph /  14.8km/h 61% 0in /  0.0mm
18:54 76.8 °F /  24.9 °C 61.9 °F /  16.6 °C 30in /  1014.8hPa West 5.4mph /  8.7km/h 7.6mph /  12.2km/h 60% 0in /  0.0mm
18:59 76.3 °F /  24.6 °C 61.9 °F /  16.6 °C 30in /  1014.8hPa WSW 3.8mph /  6.1km/h 10.7mph /  17.2km/h 61% 0in /  0.0mm
19:04 75.9 °F /  24.4 °C 61.5 °F /  16.4 °C 30in /  1014.8hPa West 3.1mph /  5.0km/h 10.7mph /  17.2km/h 61% 0in /  0.0mm
19:09 75.9 °F /  24.4 °C 61.5 °F /  16.4 °C 30in /  1015.1hPa West 6.9mph /  11.1km/h 10.7mph /  17.2km/h 61% 0in /  0.0mm
19:14 75.4 °F /  24.1 °C 61.5 °F /  16.4 °C 30in /  1015.1hPa West 4.5mph /  7.2km/h 10.7mph /  17.2km/h 62% 0in /  0.0mm
19:19 75.2 °F /  24.0 °C 61.9 °F /  16.6 °C 30in /  1015.1hPa West 3.1mph /  5.0km/h 9.2mph /  14.8km/h 63% 0in /  0.0mm
19:24 73.9 °F /  23.3 °C 61 °F /  16.1 °C 30in /  1015.1hPa West 3.8mph /  6.1km/h 8.3mph /  13.4km/h 64% 0in /  0.0mm
19:30 73.4 °F /  23.0 °C 61.3 °F /  16.3 °C 30in /  1015.1hPa WNW 3.8mph /  6.1km/h 8.3mph /  13.4km/h 66% 0in /  0.0mm
19:35 73.4 °F /  23.0 °C 61.9 °F /  16.6 °C 30in /  1015.1hPa WNW 3.1mph /  5.0km/h 8.3mph /  13.4km/h 67% 0in /  0.0mm
19:40 73.6 °F /  23.1 °C 62.1 °F /  16.7 °C 30in /  1015.1hPa WNW 3.1mph /  5.0km/h 7.6mph /  12.2km/h 67% 0in /  0.0mm
19:45 73.8 °F /  23.2 °C 61.7 °F /  16.5 °C 30in /  1015.1hPa West 6mph /  9.7km/h 9.2mph /  14.8km/h 66% 0in /  0.0mm
19:50 73 °F /  22.8 °C 61 °F /  16.1 °C 30in /  1015.5hPa West 3.8mph /  6.1km/h 9.2mph /  14.8km/h 66% 0in /  0.0mm
19:55 72.3 °F /  22.4 °C 61.2 °F /  16.2 °C 30in /  1015.5hPa West 3.1mph /  5.0km/h 8.3mph /  13.4km/h 68% 0in /  0.0mm
20:00 71.4 °F /  21.9 °C 60.6 °F /  15.9 °C 30in /  1015.5hPa WNW 4.5mph /  7.2km/h 6.9mph /  11.1km/h 69% 0in /  0.0mm
20:05 70.5 °F /  21.4 °C 60.3 °F /  15.7 °C 30in /  1015.5hPa WNW 4.5mph /  7.2km/h 6.9mph /  11.1km/h 70% 0in /  0.0mm
20:10 69.8 °F /  21.0 °C 60.1 °F /  15.6 °C 30in /  1015.5hPa West 3.1mph /  5.0km/h 6.9mph /  11.1km/h 71% 0in /  0.0mm
20:15 69.1 °F /  20.6 °C 60.1 °F /  15.6 °C 30in /  1015.5hPa West 3.1mph /  5.0km/h 8.3mph /  13.4km/h 73% 0in /  0.0mm
20:20 68.9 °F /  20.5 °C 60.3 °F /  15.7 °C 30in /  1015.8hPa West 1.6mph /  2.6km/h 8.3mph /  13.4km/h 74% 0in /  0.0mm
20:25 68.5 °F /  20.3 °C 60.3 °F /  15.7 °C 30in /  1015.8hPa West 2.2mph /  3.5km/h 6.9mph /  11.1km/h 75% 0in /  0.0mm
20:30 68.4 °F /  20.2 °C 60.4 °F /  15.8 °C 30in /  1015.8hPa West 3.8mph /  6.1km/h 6.9mph /  11.1km/h 76% 0in /  0.0mm
20:35 68.2 °F /  20.1 °C 60.6 °F /  15.9 °C 30in /  1015.8hPa West 2.2mph /  3.5km/h 6mph /  9.7km/h 77% 0in /  0.0mm
20:40 68 °F /  20.0 °C 61 °F /  16.1 °C 30in /  1015.8hPa West 2.2mph /  3.5km/h 6mph /  9.7km/h 78% 0in /  0.0mm
20:45 67.8 °F /  19.9 °C 61.2 °F /  16.2 °C 30in /  1015.8hPa West 2.2mph /  3.5km/h 4.5mph /  7.2km/h 79% 0in /  0.0mm
20:50 67.6 °F /  19.8 °C 61.3 °F /  16.3 °C 30in /  1015.8hPa West 1.6mph /  2.6km/h 4.5mph /  7.2km/h 80% 0in /  0.0mm
20:55 67.5 °F /  19.7 °C 61.2 °F /  16.2 °C 30in /  1015.5hPa West 2.2mph /  3.5km/h 4.5mph /  7.2km/h 80% 0in /  0.0mm
21:00 67.3 °F /  19.6 °C 61 °F /  16.1 °C 30in /  1015.8hPa West 2.2mph /  3.5km/h 4.5mph /  7.2km/h 80% 0in /  0.0mm
21:05 67.1 °F /  19.5 °C 61.2 °F /  16.2 °C 30in /  1015.8hPa West 1.6mph /  2.6km/h 4.5mph /  7.2km/h 81% 0in /  0.0mm
21:10 67.1 °F /  19.5 °C 61.2 °F /  16.2 °C 30in /  1015.8hPa West 1.6mph /  2.6km/h 4.5mph /  7.2km/h 81% 0in /  0.0mm
21:15 67.1 °F /  19.5 °C 61.2 °F /  16.2 °C 30in /  1015.5hPa Calm   3.1mph /  5.0km/h 81% 0in /  0.0mm
21:20 66.9 °F /  19.4 °C 61 °F /  16.1 °C 30in /  1015.8hPa WSW 0.7mph /  1.1km/h 3.1mph /  5.0km/h 81% 0in /  0.0mm
21:25 66.7 °F /  19.3 °C 60.6 °F /  15.9 °C 30in /  1015.8hPa WSW 2.2mph /  3.5km/h 3.1mph /  5.0km/h 81% 0in /  0.0mm
21:30 66.6 °F /  19.2 °C 61 °F /  16.1 °C 30in /  1015.8hPa West 0.7mph /  1.1km/h 3.1mph /  5.0km/h 82% 0in /  0.0mm
21:35 66.6 °F /  19.2 °C 61 °F /  16.1 °C 30in /  1016.1hPa NW 3.8mph /  6.1km/h 6mph /  9.7km/h 82% 0in /  0.0mm
21:40 66.6 °F /  19.2 °C 61.3 °F /  16.3 °C 30in /  1015.8hPa WNW 0.7mph /  1.1km/h 6mph /  9.7km/h 83% 0in /  0.0mm
21:45 66.6 °F /  19.2 °C 61.3 °F /  16.3 °C 30in /  1015.8hPa Calm   6mph /  9.7km/h 83% 0in /  0.0mm
21:50 66.6 °F /  19.2 °C 61.3 °F /  16.3 °C 30in /  1015.8hPa West 1.6mph /  2.6km/h 3.1mph /  5.0km/h 83% 0in /  0.0mm
21:55 66.4 °F /  19.1 °C 61.2 °F /  16.2 °C 30in /  1016.1hPa West 0.7mph /  1.1km/h 2.2mph /  3.5km/h 83% 0in /  0.0mm
22:00 66.4 °F /  19.1 °C 61.2 °F /  16.2 °C 30in /  1016.1hPa Calm   2.2mph /  3.5km/h 83% 0in /  0.0mm
22:05 66.2 °F /  19.0 °C 61 °F /  16.1 °C 30in /  1016.1hPa Calm   2.2mph /  3.5km/h 83% 0in /  0.0mm
22:11 66 °F /  18.9 °C 61.3 °F /  16.3 °C 30in /  1016.1hPa Calm   2.2mph /  3.5km/h 85% 0in /  0.0mm
22:16 65.8 °F /  18.8 °C 61.2 °F /  16.2 °C 30in /  1015.8hPa Calm     85% 0in /  0.0mm
22:21 65.7 °F /  18.7 °C 61.2 °F /  16.2 °C 30in /  1016.1hPa WNW 0.7mph /  1.1km/h 2.2mph /  3.5km/h 85% 0in /  0.0mm
22:26 65.7 °F /  18.7 °C 61.2 °F /  16.2 °C 30in /  1016.1hPa West 0.7mph /  1.1km/h 2.2mph /  3.5km/h 85% 0in /  0.0mm
22:31 65.5 °F /  18.6 °C 61.2 °F /  16.2 °C 30in /  1016.1hPa Calm   2.2mph /  3.5km/h 86% 0in /  0.0mm
22:36 65.3 °F /  18.5 °C 61 °F /  16.1 °C 30in /  1016.1hPa Calm   1.6mph /  2.6km/h 86% 0in /  0.0mm
22:41 65.1 °F /  18.4 °C 60.8 °F /  16.0 °C 30in /  1016.1hPa Calm   1.6mph /  2.6km/h 86% 0in /  0.0mm
22:46 64.9 °F /  18.3 °C 61 °F /  16.1 °C 30in /  1016.5hPa Calm   0.7mph /  1.1km/h 87% 0in /  0.0mm
22:51 64.8 °F /  18.2 °C 60.8 °F /  16.0 °C 30in /  1016.1hPa Calm     87% 0in /  0.0mm
22:56 64.8 °F /  18.2 °C 60.8 °F /  16.0 °C 30in /  1016.1hPa Calm   0.7mph /  1.1km/h 87% 0in /  0.0mm
23:01 64.6 °F /  18.1 °C 61 °F /  16.1 °C 30in /  1016.1hPa Calm   0.7mph /  1.1km/h 88% 0in /  0.0mm
23:06 64.2 °F /  17.9 °C 60.3 °F /  15.7 °C 30in /  1016.1hPa Calm   0.7mph /  1.1km/h 87% 0in /  0.0mm
23:12 64 °F /  17.8 °C 60.4 °F /  15.8 °C 30in /  1016.1hPa Calm   0.7mph /  1.1km/h 88% 0in /  0.0mm
23:17 63.9 °F /  17.7 °C 60.3 °F /  15.7 °C 30in /  1016.1hPa Calm   1.6mph /  2.6km/h 88% 0in /  0.0mm
23:22 63.9 °F /  17.7 °C 60.3 °F /  15.7 °C 30in /  1016.1hPa Calm   1.6mph /  2.6km/h 88% 0in /  0.0mm
23:27 63.9 °F /  17.7 °C 60.3 °F /  15.7 °C 30in /  1016.1hPa Calm   0.7mph /  1.1km/h 88% 0in /  0.0mm
23:32 63.7 °F /  17.6 °C 60.1 °F /  15.6 °C 30in /  1016.5hPa Calm   1.6mph /  2.6km/h 88% 0in /  0.0mm
23:37 64 °F /  17.8 °C 60.8 °F /  16.0 °C 30in /  1016.1hPa Calm   1.6mph /  2.6km/h 89% 0in /  0.0mm
23:42 64.2 °F /  17.9 °C 61 °F /  16.1 °C 30in /  1016.5hPa Calm   0.7mph /  1.1km/h 89% 0in /  0.0mm
23:47 64.2 °F /  17.9 °C 61 °F /  16.1 °C 30in /  1016.5hPa Calm     89% 0in /  0.0mm
23:52 64.2 °F /  17.9 °C 61 °F /  16.1 °C 30in /  1016.5hPa Calm     89% 0in /  0.0mm
23:57 64.2 °F /  17.9 °C 61 °F /  16.1 °C 30in /  1016.5hPa Calm     89% 0in /  0.0mm
Waitara, Taranaki. New Zealand Historic Data
Compliments of Weather Underground - 4 mb